Time;durP1;ratioP1;P1;durP2;ratioP2;P2;SDS_P1;SDS_P2;PMS_P1;PMS_P2;Temp;Humidity;BMP_temperature;BMP_pressure;BME280_temperature;BME280_humidity;BME280_pressure;Samples;Min_cycle;Max_cycle;Signal;HPM_P1;HPM_P2
2021/12/26 00:01:29;;;;;;;7.22;3.83;;;1.90;99.90;;;;;;4978467;28;20085;-92
2021/12/26 00:03:55;;;;;;;7.63;3.70;;;1.90;99.90;;;;;;4981249;28;20022;-91
2021/12/26 00:06:26;;;;;;;5.10;3.30;;;1.90;99.90;;;;;;4979310;28;20125;-91
2021/12/26 00:08:57;;;;;;;6.03;3.40;;;1.90;99.90;;;;;;4979424;28;20037;-91
2021/12/26 00:11:40;;;;;;;5.28;3.38;;;1.90;99.90;;;;;;4979274;28;20065;-91
2021/12/26 00:14:06;;;;;;;7.10;3.38;;;1.90;99.90;;;;;;4980075;28;20100;-92
2021/12/26 00:16:32;;;;;;;8.68;3.78;;;2.00;99.90;;;;;;4979157;28;20483;-92
2021/12/26 00:18:58;;;;;;;5.88;3.53;;;1.90;99.90;;;;;;4982352;28;20022;-92
2021/12/26 00:21:24;;;;;;;7.45;3.60;;;2.00;99.90;;;;;;4979076;28;20495;-90
2021/12/26 00:23:50;;;;;;;7.18;3.88;;;2.00;99.90;;;;;;4978944;28;20395;-92
2021/12/26 00:26:16;;;;;;;6.13;3.75;;;1.90;99.90;;;;;;4978792;28;20034;-92
2021/12/26 00:28:42;;;;;;;7.63;4.57;;;2.00;99.90;;;;;;4978763;28;20033;-92
2021/12/26 00:31:08;;;;;;;5.35;3.75;;;1.90;99.90;;;;;;4978758;28;20030;-92
2021/12/26 00:33:34;;;;;;;7.20;4.15;;;2.00;99.90;;;;;;4975379;28;20029;-91
2021/12/26 00:36:00;;;;;;;7.38;4.00;;;1.90;99.90;;;;;;4972266;28;20543;-92
2021/12/26 00:38:27;;;;;;;5.90;3.50;;;1.90;99.90;;;;;;4993492;28;20038;-91
2021/12/26 00:40:53;;;;;;;6.90;3.80;;;1.90;99.90;;;;;;4967534;28;20018;-91
2021/12/26 00:43:18;;;;;;;6.85;4.03;;;1.90;99.90;;;;;;4982771;28;20594;-92
2021/12/26 00:45:45;;;;;;;6.15;3.67;;;1.90;99.90;;;;;;4977541;28;20037;-91
2021/12/26 00:48:10;;;;;;;5.20;3.33;;;1.90;99.90;;;;;;4977499;28;20065;-91
2021/12/26 00:50:40;;;;;;;5.38;3.58;;;1.90;99.90;;;;;;4980014;28;20022;-92
2021/12/26 00:53:06;;;;;;;5.00;3.10;;;1.90;99.90;;;;;;4977198;28;20026;-93
2021/12/26 00:55:33;;;;;;;4.57;3.00;;;1.90;99.90;;;;;;4977158;28;20022;-93
2021/12/26 00:57:59;;;;;;;7.20;3.42;;;1.90;99.90;;;;;;4976830;28;20113;-92
2021/12/26 01:00:28;;;;;;;6.05;3.28;;;1.90;99.90;;;;;;4969234;28;20030;-93
2021/12/26 01:02:55;;;;;;;3.97;2.92;;;1.90;99.90;;;;;;4977062;28;20029;-92
2021/12/26 01:05:26;;;;;;;5.72;3.17;;;1.90;99.90;;;;;;4977186;28;20052;-93
2021/12/26 01:08:00;;;;;;;6.75;2.90;;;1.90;99.90;;;;;;4977684;28;20027;-92
2021/12/26 01:10:33;;;;;;;6.72;3.40;;;1.90;99.90;;;;;;4975235;28;20041;-92
2021/12/26 01:13:09;;;;;;;4.57;3.60;;;1.90;99.90;;;;;;4961899;28;20037;-93
2021/12/26 01:15:35;;;;;;;7.25;3.95;;;1.90;99.90;;;;;;4979494;28;20026;-92
2021/12/26 01:18:01;;;;;;;10.57;3.95;;;1.90;99.90;;;;;;4978251;28;20598;-91
2021/12/26 01:23:29;;;;;;;8.05;4.00;;;1.90;99.90;;;;;;4962152;28;20034;-92
2021/12/26 01:25:55;;;;;;;6.72;4.05;;;2.00;99.90;;;;;;4977731;28;20527;-92
2021/12/26 01:28:23;;;;;;;7.82;4.78;;;2.00;99.90;;;;;;4977747;28;20118;-93
2021/12/26 01:30:49;;;;;;;7.75;5.00;;;2.00;99.90;;;;;;4977401;28;20034;-92
2021/12/26 01:33:18;;;;;;;6.40;4.20;;;2.00;99.90;;;;;;4993596;28;20423;-94
2021/12/26 01:35:44;;;;;;;10.32;5.45;;;2.00;99.90;;;;;;4977660;28;20034;-94
2021/12/26 01:38:13;;;;;;;6.18;4.25;;;2.00;99.90;;;;;;4993527;28;20041;-93
2021/12/26 01:40:48;;;;;;;9.18;4.80;;;2.00;99.90;;;;;;4977914;28;20041;-93
2021/12/26 01:43:15;;;;;;;9.35;4.70;;;2.00;99.90;;;;;;4977505;28;20138;-94
2021/12/26 01:45:42;;;;;;;8.75;5.05;;;2.00;99.90;;;;;;4994927;28;20031;-93
2021/12/26 01:48:08;;;;;;;7.90;5.55;;;2.00;99.90;;;;;;4977896;28;20030;-92
2021/12/26 01:50:35;;;;;;;12.05;5.07;;;2.00;99.90;;;;;;4977642;28;20392;-94
2021/12/26 01:53:01;;;;;;;9.00;5.05;;;2.00;99.90;;;;;;4977389;28;20141;-93
2021/12/26 01:55:39;;;;;;;8.27;5.63;;;2.00;99.90;;;;;;4994221;28;20053;-94
2021/12/26 01:58:08;;;;;;;8.70;5.93;;;2.00;99.90;;;;;;4977708;28;20030;-93
2021/12/26 02:00:38;;;;;;;11.35;5.82;;;2.00;99.90;;;;;;4977616;28;20388;-93
2021/12/26 02:03:04;;;;;;;8.48;5.50;;;2.10;99.90;;;;;;4977585;28;20077;-93
2021/12/26 02:05:30;;;;;;;12.93;5.72;;;2.00;99.90;;;;;;4977359;28;20034;-92
2021/12/26 02:07:55;;;;;;;9.80;5.47;;;2.00;99.90;;;;;;4993314;28;20044;-94
2021/12/26 02:10:21;;;;;;;11.25;6.07;;;2.00;99.90;;;;;;4993423;28;20026;-93
2021/12/26 02:12:47;;;;;;;10.98;6.05;;;2.00;99.90;;;;;;4993712;28;20122;-93
2021/12/26 02:15:12;;;;;;;8.52;5.80;;;2.00;99.90;;;;;;4993841;28;20129;-94
2021/12/26 02:17:38;;;;;;;9.88;5.50;;;2.00;99.90;;;;;;4977457;28;20030;-93
2021/12/26 02:20:13;;;;;;;8.77;5.50;;;2.10;99.90;;;;;;4993186;28;20026;-92
2021/12/26 02:22:42;;;;;;;9.13;5.80;;;2.10;99.90;;;;;;4977532;28;20038;-93
2021/12/26 02:25:26;;;;;;;7.05;4.97;;;2.10;99.90;;;;;;4993992;28;20035;-94
2021/12/26 02:27:52;;;;;;;6.43;4.70;;;2.10;99.90;;;;;;4998760;28;20056;-94
2021/12/26 02:30:18;;;;;;;6.38;4.90;;;2.10;99.90;;;;;;5016693;28;20022;-92
2021/12/26 02:32:50;;;;;;;5.95;4.43;;;2.10;99.90;;;;;;5015938;28;20019;-92
2021/12/26 02:35:19;;;;;;;6.55;4.10;;;2.00;99.90;;;;;;4987991;28;20069;-93
2021/12/26 02:37:45;;;;;;;6.00;4.20;;;2.00;99.90;;;;;;4987962;28;20046;-92
2021/12/26 02:40:12;;;;;;;6.00;3.72;;;2.00;99.90;;;;;;4999311;28;20026;-91
2021/12/26 02:42:38;;;;;;;6.18;3.83;;;2.00;99.90;;;;;;4983125;28;20057;-92
2021/12/26 02:45:04;;;;;;;5.07;3.75;;;2.00;99.90;;;;;;4994230;28;20038;-92
2021/12/26 02:47:35;;;;;;;8.65;3.95;;;2.00;99.90;;;;;;4976415;28;20074;-92
2021/12/26 02:50:04;;;;;;;6.15;3.70;;;1.90;99.90;;;;;;4977203;28;20026;-92
2021/12/26 02:52:30;;;;;;;4.32;3.17;;;1.90;99.90;;;;;;4980597;28;20050;-92
2021/12/26 02:54:58;;;;;;;3.85;2.42;;;1.90;99.90;;;;;;4996739;28;20409;-93
2021/12/26 02:57:24;;;;;;;3.38;2.40;;;1.90;99.90;;;;;;4980794;28;20026;-92
2021/12/26 02:59:49;;;;;;;2.75;2.30;;;1.90;99.90;;;;;;4996820;28;20023;-92
2021/12/26 03:02:15;;;;;;;3.58;2.20;;;1.90;99.90;;;;;;4997633;28;20030;-93
2021/12/26 03:04:40;;;;;;;2.40;2.13;;;2.00;99.90;;;;;;5000123;28;20040;-92
2021/12/26 03:07:06;;;;;;;2.42;1.83;;;1.90;99.90;;;;;;4996375;28;20031;-91
2021/12/26 03:09:44;;;;;;;3.05;2.25;;;1.90;99.90;;;;;;4995884;28;20022;-94
2021/12/26 03:12:11;;;;;;;3.45;1.98;;;1.90;99.90;;;;;;4980213;28;20093;-92
2021/12/26 03:14:38;;;;;;;2.55;1.92;;;1.90;99.90;;;;;;4980410;28;20036;-92
2021/12/26 03:17:04;;;;;;;3.47;2.33;;;1.90;99.90;;;;;;4979900;28;20029;-91
2021/12/26 03:19:31;;;;;;;3.15;2.20;;;1.90;99.90;;;;;;4980001;28;20030;-92
2021/12/26 03:21:57;;;;;;;3.03;2.00;;;1.90;99.90;;;;;;4980170;28;20026;-93
2021/12/26 03:24:23;;;;;;;3.05;2.20;;;1.90;99.90;;;;;;4996432;28;20034;-92
2021/12/26 03:26:49;;;;;;;3.78;2.40;;;1.90;99.90;;;;;;4996341;28;20034;-93
2021/12/26 03:29:14;;;;;;;2.88;2.55;;;1.90;99.90;;;;;;4996302;28;20026;-93
2021/12/26 03:31:41;;;;;;;3.42;2.38;;;2.00;99.90;;;;;;4996263;28;20069;-92
2021/12/26 03:34:08;;;;;;;2.97;2.65;;;1.90;99.90;;;;;;4997723;28;20027;-93
2021/12/26 03:36:33;;;;;;;5.65;2.72;;;1.90;99.90;;;;;;4982455;28;20095;-92
2021/12/26 03:38:59;;;;;;;3.75;2.72;;;1.90;99.90;;;;;;5000509;28;20479;-92
2021/12/26 03:41:25;;;;;;;3.85;2.95;;;1.90;99.90;;;;;;5000701;28;20062;-93
2021/12/26 03:43:51;;;;;;;3.60;2.97;;;1.90;99.90;;;;;;5007218;28;20010;-92
2021/12/26 03:46:17;;;;;;;3.45;2.80;;;1.90;99.90;;;;;;5014853;28;20058;-92
2021/12/26 03:48:43;;;;;;;3.65;3.13;;;1.90;99.90;;;;;;5007722;28;20030;-93
2021/12/26 03:51:09;;;;;;;4.15;3.10;;;1.90;99.90;;;;;;5003089;28;20030;-92
2021/12/26 03:53:35;;;;;;;4.38;3.60;;;1.90;99.90;;;;;;5000336;28;20030;-92
2021/12/26 03:56:01;;;;;;;5.88;3.22;;;2.00;99.90;;;;;;4999042;28;20022;-94
2021/12/26 03:58:28;;;;;;;5.15;3.22;;;1.90;99.90;;;;;;4998026;28;20033;-93
2021/12/26 04:00:54;;;;;;;4.53;3.75;;;2.00;99.90;;;;;;4997210;28;20090;-93
2021/12/26 04:03:20;;;;;;;4.28;3.60;;;1.90;99.90;;;;;;4996903;28;20057;-92
2021/12/26 04:05:46;;;;;;;4.18;3.78;;;1.90;99.90;;;;;;4981012;28;20046;-93
2021/12/26 04:08:12;;;;;;;4.70;3.88;;;1.90;99.90;;;;;;4996833;28;20026;-93
2021/12/26 04:10:38;;;;;;;4.35;3.70;;;1.90;99.90;;;;;;4997086;28;20026;-93
2021/12/26 04:13:06;;;;;;;5.72;3.67;;;1.90;99.90;;;;;;4997205;28;20507;-94
2021/12/26 04:15:32;;;;;;;4.32;3.38;;;2.00;99.90;;;;;;4981984;28;20037;-91
2021/12/26 04:17:58;;;;;;;4.18;3.47;;;1.90;99.90;;;;;;4981231;28;20094;-94
2021/12/26 04:20:28;;;;;;;3.88;3.40;;;1.90;99.90;;;;;;4998007;28;20022;-93
2021/12/26 04:22:55;;;;;;;5.22;3.85;;;1.90;99.90;;;;;;4981302;28;20032;-94
2021/12/26 04:25:22;;;;;;;3.83;3.17;;;1.90;99.90;;;;;;4980941;28;20041;-92
2021/12/26 04:27:48;;;;;;;4.38;3.55;;;1.90;99.90;;;;;;4981898;28;20033;-92
2021/12/26 04:30:17;;;;;;;4.93;3.85;;;1.90;99.90;;;;;;4997518;28;20045;-93
2021/12/26 04:32:42;;;;;;;4.20;3.25;;;1.90;99.90;;;;;;4982160;28;20093;-91
2021/12/26 04:35:09;;;;;;;4.25;3.30;;;1.90;99.90;;;;;;4999979;28;20065;-92
2021/12/26 04:37:35;;;;;;;5.63;3.42;;;1.90;99.90;;;;;;4985980;28;20022;-92
2021/12/26 04:40:07;;;;;;;3.83;3.40;;;1.90;99.90;;;;;;4999173;28;20034;-91
2021/12/26 04:42:33;;;;;;;4.47;3.65;;;1.90;99.90;;;;;;4982278;28;20023;-92
2021/12/26 04:44:59;;;;;;;4.22;2.85;;;1.90;99.90;;;;;;4979697;28;20059;-93
2021/12/26 04:47:25;;;;;;;4.57;3.38;;;1.90;99.90;;;;;;4994606;28;20118;-92
2021/12/26 04:49:50;;;;;;;4.53;3.50;;;2.00;99.90;;;;;;4978992;28;20047;-92
2021/12/26 04:52:16;;;;;;;3.90;3.50;;;2.00;99.90;;;;;;4996362;28;20069;-95
2021/12/26 04:54:42;;;;;;;4.03;3.17;;;2.00;99.90;;;;;;4995924;28;20096;-94
2021/12/26 04:57:08;;;;;;;4.45;3.58;;;2.00;99.90;;;;;;4995857;28;20041;-93
2021/12/26 04:59:33;;;;;;;3.13;2.78;;;2.00;99.90;;;;;;4995405;28;20022;-94
2021/12/26 05:01:59;;;;;;;4.85;3.65;;;2.00;99.90;;;;;;4995246;28;20026;-93
2021/12/26 05:04:25;;;;;;;4.65;3.55;;;2.00;99.90;;;;;;4995018;28;20034;-94
2021/12/26 05:06:51;;;;;;;4.18;3.35;;;2.00;99.90;;;;;;4999077;28;20022;-93
2021/12/26 05:09:16;;;;;;;4.20;3.80;;;2.00;99.90;;;;;;4996920;28;20121;-93
2021/12/26 05:11:42;;;;;;;4.38;3.67;;;2.00;99.90;;;;;;4994481;28;20041;-92
2021/12/26 05:14:08;;;;;;;4.28;3.70;;;2.00;99.90;;;;;;4994039;28;20022;-93
2021/12/26 05:16:33;;;;;;;5.10;3.90;;;2.00;99.90;;;;;;4994245;28;20041;-93
2021/12/26 05:18:59;;;;;;;5.13;3.72;;;2.00;99.90;;;;;;4994021;28;20113;-93
2021/12/26 05:21:25;;;;;;;5.93;3.83;;;2.00;99.90;;;;;;4993990;28;20079;-92
2021/12/26 05:23:51;;;;;;;4.88;3.80;;;2.00;99.90;;;;;;4994496;28;20026;-93
2021/12/26 05:26:17;;;;;;;4.65;3.67;;;2.00;99.90;;;;;;4994263;28;20039;-94
2021/12/26 05:28:42;;;;;;;4.03;3.53;;;2.00;99.90;;;;;;4994083;28;20053;-94
2021/12/26 05:31:08;;;;;;;4.78;3.90;;;2.00;99.90;;;;;;4993799;28;20172;-94
2021/12/26 05:33:34;;;;;;;4.55;3.53;;;2.00;99.90;;;;;;4993934;28;20019;-94
2021/12/26 05:36:00;;;;;;;5.30;3.50;;;2.10;99.90;;;;;;4994136;28;20022;-94
2021/12/26 05:38:27;;;;;;;4.05;3.40;;;2.10;99.90;;;;;;4994453;28;20603;-94
2021/12/26 05:40:54;;;;;;;3.83;3.25;;;2.00;99.90;;;;;;4993840;28;20026;-94
2021/12/26 05:43:20;;;;;;;4.00;3.42;;;2.10;99.90;;;;;;4977878;28;20026;-92
2021/12/26 05:45:46;;;;;;;4.13;3.40;;;2.10;99.90;;;;;;4994529;28;20089;-93
2021/12/26 05:48:12;;;;;;;3.85;3.40;;;2.10;99.90;;;;;;4961985;28;20030;-93
2021/12/26 05:50:37;;;;;;;5.78;4.28;;;2.10;99.90;;;;;;4986945;28;20022;-92
2021/12/26 05:53:03;;;;;;;4.97;4.00;;;2.10;99.90;;;;;;5008409;28;20090;-93
2021/12/26 05:55:31;;;;;;;6.93;4.07;;;2.20;99.90;;;;;;5005243;28;20128;-93
2021/12/26 05:57:57;;;;;;;6.50;4.35;;;2.10;99.90;;;;;;4984581;28;20023;-94
2021/12/26 06:00:23;;;;;;;5.00;4.20;;;2.20;99.90;;;;;;4982703;28;20058;-94
2021/12/26 06:02:52;;;;;;;6.53;4.53;;;2.20;99.90;;;;;;4997201;28;20026;-94
2021/12/26 06:05:19;;;;;;;5.15;4.35;;;2.20;99.90;;;;;;4995448;28;20042;-94
2021/12/26 06:07:45;;;;;;;6.75;4.57;;;2.10;99.90;;;;;;4977918;28;20391;-94
2021/12/26 06:10:11;;;;;;;6.47;4.20;;;2.20;99.90;;;;;;4994218;28;20118;-93
2021/12/26 06:12:36;;;;;;;5.53;4.47;;;2.20;99.90;;;;;;4994352;28;20026;-93
2021/12/26 06:15:04;;;;;;;4.70;3.88;;;2.20;99.90;;;;;;4993555;28;20492;-93
2021/12/26 06:17:30;;;;;;;5.50;4.00;;;2.20;99.90;;;;;;4977690;28;20113;-93
2021/12/26 06:19:56;;;;;;;5.47;4.45;;;2.20;99.90;;;;;;4979836;28;20108;-93
2021/12/26 06:22:22;;;;;;;5.57;4.38;;;2.20;99.90;;;;;;4999787;28;20454;-93
2021/12/26 06:24:47;;;;;;;5.70;4.22;;;2.20;99.90;;;;;;4980192;28;20049;-93
2021/12/26 06:27:13;;;;;;;6.03;4.32;;;2.20;99.90;;;;;;4997269;28;20045;-93
2021/12/26 06:29:39;;;;;;;5.72;4.45;;;2.20;99.90;;;;;;4996899;28;20129;-93
2021/12/26 06:32:05;;;;;;;6.35;4.00;;;2.20;99.90;;;;;;4997070;28;20025;-93
2021/12/26 06:34:31;;;;;;;5.70;4.55;;;2.20;99.90;;;;;;4980808;28;20026;-93
2021/12/26 06:36:56;;;;;;;6.90;5.07;;;2.20;99.90;;;;;;4995813;28;20198;-92
2021/12/26 06:39:22;;;;;;;6.00;4.85;;;2.20;99.90;;;;;;4996882;28;20635;-93
2021/12/26 06:41:48;;;;;;;6.50;4.93;;;2.20;99.90;;;;;;4997140;28;20037;-92
2021/12/26 06:44:14;;;;;;;7.07;5.05;;;2.30;99.90;;;;;;4996817;28;20050;-94
2021/12/26 06:46:40;;;;;;;7.07;5.18;;;2.30;99.90;;;;;;4996397;28;20385;-93
2021/12/26 06:49:06;;;;;;;7.93;4.72;;;2.30;99.90;;;;;;4996349;28;20121;-93
2021/12/26 06:51:32;;;;;;;7.10;4.95;;;2.30;99.90;;;;;;4974380;28;20158;-93
2021/12/26 06:53:58;;;;;;;7.40;5.38;;;2.30;99.90;;;;;;4987556;28;20022;-93
2021/12/26 06:56:24;;;;;;;5.88;4.63;;;2.30;99.90;;;;;;4979492;28;20471;-94
2021/12/26 06:58:50;;;;;;;6.72;5.35;;;2.30;99.90;;;;;;4983896;28;20126;-92
2021/12/26 07:01:16;;;;;;;5.97;4.57;;;2.30;99.90;;;;;;4971066;28;20073;-94
2021/12/26 07:03:41;;;;;;;7.65;5.00;;;2.30;99.90;;;;;;4995344;28;20034;-93
2021/12/26 07:06:09;;;;;;;7.35;5.00;;;2.30;99.90;;;;;;4995255;28;20128;-94
2021/12/26 07:08:34;;;;;;;7.10;4.93;;;2.30;99.90;;;;;;4979381;28;20029;-94
2021/12/26 07:11:00;;;;;;;5.80;4.55;;;2.30;99.90;;;;;;4995474;28;20023;-93
2021/12/26 07:13:26;;;;;;;7.82;5.60;;;2.30;99.90;;;;;;4971292;28;20018;-92
2021/12/26 07:15:51;;;;;;;8.18;5.40;;;2.30;99.90;;;;;;4987067;28;20026;-93
2021/12/26 07:18:17;;;;;;;6.50;5.00;;;2.30;99.90;;;;;;4971059;28;20476;-94
2021/12/26 07:20:43;;;;;;;5.32;4.15;;;2.30;99.90;;;;;;4987233;28;20049;-93
2021/12/26 07:23:09;;;;;;;8.40;5.18;;;2.30;99.90;;;;;;4995255;28;20093;-94
2021/12/26 07:25:35;;;;;;;6.57;4.47;;;2.30;99.90;;;;;;4978110;28;20125;-92
2021/12/26 07:28:01;;;;;;;5.95;4.43;;;2.30;99.90;;;;;;4962316;28;20035;-93
2021/12/26 07:30:27;;;;;;;7.60;4.47;;;2.30;99.90;;;;;;4978261;28;20438;-92
2021/12/26 07:32:52;;;;;;;6.65;4.80;;;2.40;99.90;;;;;;4979277;28;20023;-91
2021/12/26 07:35:18;;;;;;;6.53;4.68;;;2.40;99.90;;;;;;4979301;28;20153;-93
2021/12/26 07:37:45;;;;;;;7.00;5.25;;;2.50;99.90;;;;;;4978585;28;20069;-93
2021/12/26 07:40:11;;;;;;;7.28;4.80;;;2.50;99.90;;;;;;4979424;28;20033;-93
2021/12/26 07:42:37;;;;;;;7.03;4.78;;;2.50;99.90;;;;;;4979072;28;20030;-92
2021/12/26 07:45:03;;;;;;;6.00;4.63;;;2.50;99.90;;;;;;4978910;28;20089;-93
2021/12/26 07:47:28;;;;;;;7.25;4.82;;;2.50;99.90;;;;;;4978650;28;20050;-93
2021/12/26 07:49:54;;;;;;;8.65;5.30;;;2.60;99.90;;;;;;4977996;28;20025;-93
2021/12/26 07:52:28;;;;;;;6.43;4.60;;;2.60;99.90;;;;;;4978288;28;20026;-92
2021/12/26 07:54:54;;;;;;;6.82;5.03;;;2.60;99.90;;;;;;4976054;28;20129;-92
2021/12/26 07:57:19;;;;;;;6.78;4.85;;;2.60;99.90;;;;;;4978827;28;20058;-92
2021/12/26 07:59:45;;;;;;;5.35;3.97;;;2.60;99.90;;;;;;4980221;28;20026;-92
2021/12/26 08:02:17;;;;;;;5.93;4.35;;;2.60;99.90;;;;;;4980230;28;20468;-92
2021/12/26 08:04:44;;;;;;;5.65;4.38;;;2.60;99.90;;;;;;4982399;28;20030;-92
2021/12/26 08:07:10;;;;;;;6.20;4.38;;;2.60;99.90;;;;;;4998424;28;20118;-92
2021/12/26 08:09:36;;;;;;;4.85;3.95;;;2.60;99.90;;;;;;4994635;28;20015;-92
2021/12/26 08:12:02;;;;;;;5.22;4.13;;;2.60;99.90;;;;;;4991255;28;20061;-93
2021/12/26 08:14:27;;;;;;;6.45;4.28;;;2.60;99.90;;;;;;4987171;28;20027;-92
2021/12/26 08:16:53;;;;;;;4.80;3.10;;;2.60;99.90;;;;;;4986467;28;20037;-94
2021/12/26 08:19:19;;;;;;;6.22;3.50;;;2.60;99.90;;;;;;4983782;28;20037;-92
2021/12/26 08:21:45;;;;;;;4.13;3.20;;;2.60;99.90;;;;;;4997287;28;20022;-94
2021/12/26 08:24:11;;;;;;;3.97;3.33;;;2.60;99.90;;;;;;4980048;28;20373;-91
2021/12/26 08:26:37;;;;;;;3.75;3.15;;;2.60;99.90;;;;;;4971504;28;20122;-92
2021/12/26 08:29:02;;;;;;;5.28;3.63;;;2.60;99.90;;;;;;4979623;28;20029;-92
2021/12/26 08:31:31;;;;;;;3.05;2.72;;;2.60;99.90;;;;;;4980237;28;20030;-93
2021/12/26 08:33:56;;;;;;;2.83;2.38;;;2.60;99.90;;;;;;4979885;28;20021;-91
2021/12/26 08:36:22;;;;;;;4.30;3.03;;;2.60;99.90;;;;;;4978870;28;20026;-92
2021/12/26 08:38:49;;;;;;;2.92;2.38;;;2.60;99.90;;;;;;4980038;28;20023;-91
2021/12/26 08:41:14;;;;;;;3.75;2.40;;;2.60;99.90;;;;;;4978899;28;20022;-93
2021/12/26 08:43:43;;;;;;;2.00;1.80;;;2.60;99.90;;;;;;4978840;28;20138;-91
2021/12/26 08:46:10;;;;;;;3.15;2.70;;;2.60;99.90;;;;;;4980029;28;20050;-91
2021/12/26 08:48:36;;;;;;;3.63;2.80;;;2.60;99.90;;;;;;4990423;28;20014;-93
2021/12/26 08:51:02;;;;;;;5.03;3.00;;;2.60;99.90;;;;;;4979893;28;20022;-92
2021/12/26 08:53:28;;;;;;;4.20;3.10;;;2.70;99.90;;;;;;4969228;28;20046;-92
2021/12/26 08:55:54;;;;;;;6.15;3.00;;;2.70;99.90;;;;;;4978240;28;20030;-92
2021/12/26 08:58:21;;;;;;;5.00;3.60;;;2.60;99.90;;;;;;4979018;28;20023;-93
2021/12/26 09:00:47;;;;;;;5.55;3.45;;;2.70;99.90;;;;;;4978536;28;20022;-93
2021/12/26 09:03:12;;;;;;;6.13;4.32;;;2.70;99.90;;;;;;4980236;28;20026;-93
2021/12/26 09:05:38;;;;;;;7.32;4.68;;;2.70;99.90;;;;;;4986262;28;20038;-93
2021/12/26 09:08:07;;;;;;;6.03;4.20;;;2.70;99.90;;;;;;4988397;28;20014;-92
2021/12/26 09:10:41;;;;;;;7.88;4.53;;;2.70;99.90;;;;;;4978708;28;20055;-92
2021/12/26 09:13:08;;;;;;;6.63;4.80;;;2.70;99.90;;;;;;4985684;28;20030;-92
2021/12/26 09:15:35;;;;;;;9.13;5.00;;;2.70;99.90;;;;;;4991020;28;20029;-92
2021/12/26 09:18:03;;;;;;;6.55;5.00;;;2.70;99.90;;;;;;4990981;28;20019;-93
2021/12/26 09:20:29;;;;;;;9.00;5.47;;;2.70;99.90;;;;;;4986914;28;20054;-93
2021/12/26 09:22:55;;;;;;;8.85;6.13;;;2.70;99.90;;;;;;4988476;28;20026;-93
2021/12/26 09:25:21;;;;;;;8.25;5.50;;;2.70;99.90;;;;;;4981331;28;20030;-92
2021/12/26 09:27:47;;;;;;;8.45;5.35;;;2.70;99.90;;;;;;4985422;28;20037;-93
2021/12/26 09:30:14;;;;;;;8.35;5.70;;;2.70;99.90;;;;;;4979258;28;20026;-94
2021/12/26 09:32:40;;;;;;;9.77;6.32;;;2.70;99.90;;;;;;4978261;28;20464;-94
2021/12/26 09:35:07;;;;;;;8.60;5.72;;;2.70;99.90;;;;;;4995432;28;20026;-93
2021/12/26 09:37:33;;;;;;;10.40;6.60;;;2.80;99.90;;;;;;4978042;28;20022;-91
2021/12/26 09:39:59;;;;;;;7.05;4.97;;;2.80;99.90;;;;;;4977970;28;20047;-93
2021/12/26 09:42:25;;;;;;;11.35;6.85;;;2.80;99.90;;;;;;4978876;28;20018;-94
2021/12/26 09:44:51;;;;;;;8.40;5.63;;;2.80;99.90;;;;;;4977746;28;20446;-94
2021/12/26 09:47:17;;;;;;;11.77;6.78;;;2.80;99.90;;;;;;4977717;28;20205;-95
2021/12/26 09:49:43;;;;;;;8.50;5.68;;;2.80;99.90;;;;;;4977951;28;20014;-94
2021/12/26 09:52:09;;;;;;;9.18;5.55;;;2.80;99.90;;;;;;4991850;28;20046;-94
2021/12/26 09:54:35;;;;;;;11.13;6.45;;;2.80;99.90;;;;;;4980527;28;20018;-93
2021/12/26 09:57:01;;;;;;;12.50;7.15;;;2.80;99.90;;;;;;4984189;28;20025;-93
2021/12/26 09:59:30;;;;;;;11.48;6.93;;;2.90;99.90;;;;;;4986355;28;20022;-93
2021/12/26 10:02:05;;;;;;;7.85;5.05;;;2.80;99.90;;;;;;4980433;28;20018;-94
2021/12/26 10:04:33;;;;;;;9.07;5.97;;;2.90;99.90;;;;;;4982970;28;20124;-94
2021/12/26 10:07:09;;;;;;;9.45;5.75;;;2.90;99.90;;;;;;4971489;28;20034;-93
2021/12/26 10:09:49;;;;;;;8.98;5.20;;;2.90;99.90;;;;;;4980939;28;20022;-95
2021/12/26 10:12:17;;;;;;;7.63;5.20;;;2.90;99.90;;;;;;4981822;28;20042;-95
2021/12/26 10:14:46;;;;;;;8.18;5.13;;;2.90;99.90;;;;;;4980743;28;20014;-92
2021/12/26 10:17:23;;;;;;;7.22;4.82;;;2.90;99.90;;;;;;4980574;28;20022;-93
2021/12/26 10:19:50;;;;;;;8.20;5.13;;;2.90;99.90;;;;;;4979034;28;20090;-92
2021/12/26 10:22:25;;;;;;;8.35;5.68;;;2.90;99.90;;;;;;4962328;28;20504;-92
2021/12/26 10:24:54;;;;;;;9.13;5.00;;;3.00;99.90;;;;;;4980345;28;20034;-92
2021/12/26 10:27:23;;;;;;;6.93;4.57;;;3.00;99.90;;;;;;4980205;28;20041;-93
2021/12/26 10:29:52;;;;;;;8.45;5.20;;;3.00;99.90;;;;;;4980564;28;20026;-94
2021/12/26 10:32:22;;;;;;;8.48;4.90;;;3.00;99.90;;;;;;4991567;28;20113;-93
2021/12/26 10:34:53;;;;;;;7.05;4.45;;;3.00;99.90;;;;;;4980385;28;20037;-91
2021/12/26 10:37:22;;;;;;;7.35;5.15;;;3.00;99.90;;;;;;4972620;28;20030;-93
2021/12/26 10:40:03;;;;;;;9.25;4.88;;;3.00;99.90;;;;;;4979891;28;20022;-93
2021/12/26 10:42:35;;;;;;;7.43;5.13;;;3.00;99.90;;;;;;4979546;28;20030;-94
2021/12/26 10:45:09;;;;;;;6.60;4.32;;;3.10;99.90;;;;;;4998080;28;20543;-94
2021/12/26 10:47:40;;;;;;;8.95;5.82;;;3.10;99.90;;;;;;4987768;28;20034;-90
2021/12/26 10:50:11;;;;;;;;;;;3.10;99.90;;;;;;4996684;28;20026;-91
2021/12/26 10:52:42;;;;;;;9.75;4.88;;;3.10;99.90;;;;;;5013602;28;19917;-91
2021/12/26 10:55:12;;;;;;;6.25;4.70;;;3.10;99.90;;;;;;4989310;28;20045;-91
2021/12/26 10:57:43;;;;;;;6.70;3.90;;;3.20;99.90;;;;;;4995777;28;20109;-93
2021/12/26 11:00:20;;;;;;;7.55;5.18;;;3.20;99.90;;;;;;5000230;28;20038;-92
2021/12/26 11:03:01;;;;;;;7.72;4.75;;;3.20;99.90;;;;;;5001262;28;20029;-91
2021/12/26 11:05:37;;;;;;;10.07;6.25;;;3.20;99.90;;;;;;4997474;28;20072;-92
2021/12/26 11:08:06;;;;;;;8.35;4.80;;;3.20;99.90;;;;;;4999442;28;20075;-93
2021/12/26 11:10:35;;;;;;;10.82;5.47;;;3.30;99.90;;;;;;4998361;28;20030;-93
2021/12/26 11:13:03;;;;;;;10.05;5.38;;;3.30;99.90;;;;;;4998450;28;20113;-92
2021/12/26 11:15:34;;;;;;;11.68;5.93;;;3.30;99.90;;;;;;5015464;28;20018;-92
2021/12/26 11:18:06;;;;;;;11.43;6.63;;;3.30;99.90;;;;;;5011999;28;20053;-92
2021/12/26 11:20:36;;;;;;;8.45;4.20;;;3.30;99.90;;;;;;4998773;28;20101;-93
2021/12/26 11:23:09;;;;;;;11.48;6.00;;;3.30;99.90;;;;;;5012525;28;20033;-90
2021/12/26 11:25:39;;;;;;;8.43;4.95;;;3.30;99.90;;;;;;4999223;28;20042;-92
2021/12/26 11:28:04;;;;;;;11.70;6.78;;;3.40;99.90;;;;;;5012249;28;20221;-92
2021/12/26 11:30:30;;;;;;;13.63;6.10;;;3.40;99.90;;;;;;4997819;28;20512;-93
2021/12/26 11:32:57;;;;;;;11.40;6.60;;;3.40;99.90;;;;;;4998547;28;20021;-92
2021/12/26 11:35:23;;;;;;;8.60;5.65;;;3.50;99.90;;;;;;4998428;28;20029;-91
2021/12/26 11:37:51;;;;;;;10.40;5.53;;;3.50;99.90;;;;;;5003517;28;20077;-92
2021/12/26 11:40:18;;;;;;;10.55;6.43;;;3.50;99.90;;;;;;5000055;28;20029;-92
2021/12/26 11:43:04;;;;;;;11.55;6.65;;;3.50;99.90;;;;;;4999104;28;20025;-92
2021/12/26 11:45:59;;;;;;;9.85;5.82;;;3.50;99.90;;;;;;5000590;28;20038;-92
2021/12/26 11:48:59;;;;;;;8.98;5.32;;;3.50;99.90;;;;;;4999281;28;20049;-92
2021/12/26 11:51:52;;;;;;;10.15;5.72;;;3.50;99.90;;;;;;4967538;28;20080;-92
2021/12/26 11:54:55;;;;;;;10.00;5.55;;;3.50;99.90;;;;;;5015721;28;20041;-92
2021/12/26 11:58:01;;;;;;;17.60;9.35;;;3.50;99.90;;;;;;4998753;28;20034;-91
2021/12/26 12:00:31;;;;;;;12.32;7.45;;;3.50;99.90;;;;;;4979051;28;20369;-92
2021/12/26 12:02:59;;;;;;;12.50;6.20;;;3.50;99.90;;;;;;4989776;28;20026;-91
2021/12/26 12:05:28;;;;;;;9.38;6.10;;;3.50;99.90;;;;;;4998056;28;20036;-92
2021/12/26 12:07:59;;;;;;;12.70;6.22;;;3.60;99.90;;;;;;4998042;28;20049;-91
2021/12/26 12:10:42;;;;;;;10.65;6.47;;;3.60;99.90;;;;;;4997418;28;20030;-91
2021/12/26 12:13:40;;;;;;;11.60;6.13;;;3.50;99.90;;;;;;4994456;28;20057;-90
2021/12/26 12:16:08;;;;;;;11.57;5.97;;;3.50;99.90;;;;;;4977833;28;20038;-93
2021/12/26 12:18:35;;;;;;;10.30;6.38;;;3.60;99.90;;;;;;5012791;28;20060;-92
2021/12/26 12:21:11;;;;;;;11.13;6.53;;;3.60;99.90;;;;;;5013168;28;20119;-92
2021/12/26 12:23:57;;;;;;;11.93;6.68;;;3.50;99.90;;;;;;4996649;28;20026;-92
2021/12/26 12:26:51;;;;;;;15.40;6.85;;;3.60;99.90;;;;;;5006368;28;20050;-92
2021/12/26 12:29:42;;;;;;;11.73;6.40;;;3.60;99.90;;;;;;5070094;27;20486;-92
2021/12/26 12:32:07;;;;;;;12.98;7.07;;;3.60;99.90;;;;;;5068996;28;20028;-93
2021/12/26 12:35:09;;;;;;;13.60;7.07;;;3.60;99.90;;;;;;5075060;28;20051;-94
2021/12/26 12:37:46;;;;;;;13.18;6.65;;;3.60;99.90;;;;;;5077221;28;20040;-92
2021/12/26 12:40:33;;;;;;;12.07;6.35;;;3.70;99.90;;;;;;5083430;28;20052;-92
2021/12/26 12:43:08;;;;;;;12.27;6.70;;;3.70;99.90;;;;;;5080338;28;20021;-93
2021/12/26 12:45:57;;;;;;;11.02;5.85;;;3.70;99.90;;;;;;5079663;28;20067;-95
2021/12/26 12:48:31;;;;;;;10.90;6.32;;;3.70;99.90;;;;;;5079224;28;20056;-94
2021/12/26 12:51:18;;;;;;;11.70;6.57;;;3.80;99.90;;;;;;5078431;28;20071;-93
2021/12/26 12:53:46;;;;;;;10.77;6.35;;;3.80;99.90;;;;;;5069229;28;20029;-94
2021/12/26 12:56:30;;;;;;;11.85;6.65;;;3.80;99.90;;;;;;5071229;28;20059;-94
2021/12/26 13:01:46;;;;;;;11.52;6.68;;;3.80;99.90;;;;;;5071734;28;20041;-92
2021/12/26 13:04:13;;;;;;;11.80;7.07;;;3.80;99.90;;;;;;5061931;28;20470;-91
2021/12/26 13:06:55;;;;;;;13.85;7.53;;;3.90;99.90;;;;;;5052843;28;20559;-91
2021/12/26 13:09:21;;;;;;;15.00;7.22;;;3.90;99.90;;;;;;5051030;28;20063;-92